sensor_id;sensor_type;location;lat;lon;timestamp;P1;durP1;ratioP1;P2;durP2;ratioP2
9667;SDS011;4872;48.316;10.650;2023-11-21T04:52:44;4.30;;;2.40;;
9667;SDS011;4872;48.316;10.650;2023-11-21T04:55:11;3.90;;;2.00;;
9667;SDS011;4872;48.316;10.650;2023-11-21T04:57:38;4.63;;;2.23;;
9667;SDS011;4872;48.316;10.650;2023-11-21T05:00:07;4.60;;;1.80;;
9667;SDS011;4872;48.316;10.650;2023-11-21T05:02:35;3.67;;;2.73;;
9667;SDS011;4872;48.316;10.650;2023-11-21T05:05:03;4.97;;;1.80;;
9667;SDS011;4872;48.316;10.650;2023-11-21T05:07:30;2.60;;;1.83;;
9667;SDS011;4872;48.316;10.650;2023-11-21T05:10:01;4.03;;;1.60;;
9667;SDS011;4872;48.316;10.650;2023-11-21T05:12:31;1.87;;;1.33;;
9667;SDS011;4872;48.316;10.650;2023-11-21T05:14:59;2.37;;;1.57;;
9667;SDS011;4872;48.316;10.650;2023-11-21T05:17:28;3.87;;;1.50;;
9667;SDS011;4872;48.316;10.650;2023-11-21T05:19:55;3.80;;;1.60;;
9667;SDS011;4872;48.316;10.650;2023-11-21T05:22:21;3.03;;;1.63;;
9667;SDS011;4872;48.316;10.650;2023-11-21T05:24:48;2.77;;;1.20;;
9667;SDS011;4872;48.316;10.650;2023-11-21T05:27:17;6.77;;;1.73;;
9667;SDS011;4872;48.316;10.650;2023-11-21T05:29:43;3.60;;;1.73;;
9667;SDS011;4872;48.316;10.650;2023-11-21T05:32:10;4.77;;;2.20;;
9667;SDS011;4872;48.316;10.650;2023-11-21T05:34:37;1.77;;;1.40;;
9667;SDS011;4872;48.316;10.650;2023-11-21T05:37:04;1.63;;;1.30;;
9667;SDS011;4872;48.316;10.650;2023-11-21T05:39:31;2.07;;;1.37;;
9667;SDS011;4872;48.316;10.650;2023-11-21T05:41:58;3.50;;;1.40;;
9667;SDS011;4872;48.316;10.650;2023-11-21T05:44:26;2.27;;;1.30;;
9667;SDS011;4872;48.316;10.650;2023-11-21T05:46:53;3.40;;;1.20;;
9667;SDS011;4872;48.316;10.650;2023-11-21T05:49:20;2.33;;;1.60;;
9667;SDS011;4872;48.316;10.650;2023-11-21T05:51:47;2.97;;;1.50;;
9667;SDS011;4872;48.316;10.650;2023-11-21T05:54:13;4.07;;;1.50;;
9667;SDS011;4872;48.316;10.650;2023-11-21T05:56:40;3.07;;;2.80;;
9667;SDS011;4872;48.316;10.650;2023-11-21T05:59:07;1.27;;;1.10;;
9667;SDS011;4872;48.316;10.650;2023-11-21T06:01:36;1.80;;;1.40;;
9667;SDS011;4872;48.316;10.650;2023-11-21T06:04:03;1.93;;;1.40;;
9667;SDS011;4872;48.316;10.650;2023-11-21T06:06:33;2.47;;;1.20;;
9667;SDS011;4872;48.316;10.650;2023-11-21T06:09:00;3.13;;;1.80;;
9667;SDS011;4872;48.316;10.650;2023-11-21T06:11:27;2.63;;;1.60;;
9667;SDS011;4872;48.316;10.650;2023-11-21T06:13:54;3.13;;;1.57;;
9667;SDS011;4872;48.316;10.650;2023-11-21T06:16:21;1.83;;;1.30;;
9667;SDS011;4872;48.316;10.650;2023-11-21T06:18:49;2.90;;;1.63;;
9667;SDS011;4872;48.316;10.650;2023-11-21T06:21:16;2.40;;;1.30;;
9667;SDS011;4872;48.316;10.650;2023-11-21T06:23:43;1.40;;;1.30;;
9667;SDS011;4872;48.316;10.650;2023-11-21T06:26:10;2.17;;;1.20;;
9667;SDS011;4872;48.316;10.650;2023-11-21T06:28:38;4.00;;;2.40;;
9667;SDS011;4872;48.316;10.650;2023-11-21T06:31:04;3.90;;;2.33;;
9667;SDS011;4872;48.316;10.650;2023-11-21T06:33:32;4.83;;;2.20;;
9667;SDS011;4872;48.316;10.650;2023-11-21T06:36:00;5.43;;;2.70;;
9667;SDS011;4872;48.316;10.650;2023-11-21T06:38:27;1.80;;;1.70;;
9667;SDS011;4872;48.316;10.650;2023-11-21T06:40:55;2.87;;;1.83;;
9667;SDS011;4872;48.316;10.650;2023-11-21T06:43:23;1.40;;;1.30;;
9667;SDS011;4872;48.316;10.650;2023-11-21T06:45:50;2.33;;;1.73;;
9667;SDS011;4872;48.316;10.650;2023-11-21T06:48:16;5.53;;;1.80;;
9667;SDS011;4872;48.316;10.650;2023-11-21T06:50:43;2.07;;;1.53;;
9667;SDS011;4872;48.316;10.650;2023-11-21T06:53:13;1.40;;;1.30;;
9667;SDS011;4872;48.316;10.650;2023-11-21T06:55:40;1.57;;;1.47;;
9667;SDS011;4872;48.316;10.650;2023-11-21T06:58:06;1.63;;;1.33;;
9667;SDS011;4872;48.316;10.650;2023-11-21T07:00:33;2.33;;;1.60;;
9667;SDS011;4872;48.316;10.650;2023-11-21T07:03:00;1.67;;;1.23;;
9667;SDS011;4872;48.316;10.650;2023-11-21T07:05:27;3.07;;;1.33;;
9667;SDS011;4872;48.316;10.650;2023-11-21T07:07:53;2.80;;;1.53;;
9667;SDS011;4872;48.316;10.650;2023-11-21T07:10:22;4.57;;;2.27;;
9667;SDS011;4872;48.316;10.650;2023-11-21T07:12:49;3.47;;;2.00;;
9667;SDS011;4872;48.316;10.650;2023-11-21T07:15:16;4.37;;;1.70;;
9667;SDS011;4872;48.316;10.650;2023-11-21T07:17:44;2.40;;;1.80;;
9667;SDS011;4872;48.316;10.650;2023-11-21T07:20:12;2.63;;;2.13;;
9667;SDS011;4872;48.316;10.650;2023-11-21T07:22:38;3.67;;;1.63;;
9667;SDS011;4872;48.316;10.650;2023-11-21T07:25:06;3.87;;;1.50;;
9667;SDS011;4872;48.316;10.650;2023-11-21T07:27:36;5.80;;;1.80;;
9667;SDS011;4872;48.316;10.650;2023-11-21T07:30:03;4.80;;;2.60;;
9667;SDS011;4872;48.316;10.650;2023-11-21T07:32:31;2.10;;;1.73;;
9667;SDS011;4872;48.316;10.650;2023-11-21T07:34:58;2.70;;;1.77;;
9667;SDS011;4872;48.316;10.650;2023-11-21T07:37:26;1.77;;;1.60;;
9667;SDS011;4872;48.316;10.650;2023-11-21T07:39:54;3.60;;;1.40;;
9667;SDS011;4872;48.316;10.650;2023-11-21T07:42:21;2.47;;;1.83;;
9667;SDS011;4872;48.316;10.650;2023-11-21T07:44:49;2.83;;;1.80;;
9667;SDS011;4872;48.316;10.650;2023-11-21T07:47:17;2.13;;;1.90;;
9667;SDS011;4872;48.316;10.650;2023-11-21T07:49:43;5.53;;;2.37;;
9667;SDS011;4872;48.316;10.650;2023-11-21T07:52:11;3.73;;;1.80;;
9667;SDS011;4872;48.316;10.650;2023-11-21T07:54:41;1.63;;;1.50;;
9667;SDS011;4872;48.316;10.650;2023-11-21T07:57:08;2.87;;;1.87;;
9667;SDS011;4872;48.316;10.650;2023-11-21T07:59:38;4.07;;;1.80;;
9667;SDS011;4872;48.316;10.650;2023-11-21T08:02:07;1.47;;;1.37;;
9667;SDS011;4872;48.316;10.650;2023-11-21T08:04:34;1.53;;;1.33;;
9667;SDS011;4872;48.316;10.650;2023-11-21T08:07:01;2.20;;;1.43;;
9667;SDS011;4872;48.316;10.650;2023-11-21T08:09:28;2.53;;;1.60;;
9667;SDS011;4872;48.316;10.650;2023-11-21T08:11:55;1.87;;;1.57;;
9667;SDS011;4872;48.316;10.650;2023-11-21T08:14:22;2.67;;;1.67;;
9667;SDS011;4872;48.316;10.650;2023-11-21T08:16:50;2.43;;;1.60;;
9667;SDS011;4872;48.316;10.650;2023-11-21T08:19:18;5.33;;;1.90;;
9667;SDS011;4872;48.316;10.650;2023-11-21T08:21:45;2.10;;;1.90;;
9667;SDS011;4872;48.316;10.650;2023-11-21T08:24:12;2.40;;;1.63;;
9667;SDS011;4872;48.316;10.650;2023-11-21T08:26:39;3.17;;;1.93;;
9667;SDS011;4872;48.316;10.650;2023-11-21T08:29:06;5.17;;;2.00;;
9667;SDS011;4872;48.316;10.650;2023-11-21T08:31:33;4.20;;;2.20;;
9667;SDS011;4872;48.316;10.650;2023-11-21T08:34:00;2.90;;;2.10;;
9667;SDS011;4872;48.316;10.650;2023-11-21T08:36:29;3.27;;;2.47;;
9667;SDS011;4872;48.316;10.650;2023-11-21T08:38:56;4.33;;;1.87;;
9667;SDS011;4872;48.316;10.650;2023-11-21T08:41:23;2.00;;;1.80;;
9667;SDS011;4872;48.316;10.650;2023-11-21T08:43:53;5.13;;;1.43;;
9667;SDS011;4872;48.316;10.650;2023-11-21T08:46:20;3.77;;;2.03;;
9667;SDS011;4872;48.316;10.650;2023-11-21T08:48:47;1.77;;;1.67;;
9667;SDS011;4872;48.316;10.650;2023-11-21T08:51:17;3.00;;;1.73;;
9667;SDS011;4872;48.316;10.650;2023-11-21T08:53:45;3.87;;;1.53;;
9667;SDS011;4872;48.316;10.650;2023-11-21T08:56:12;2.93;;;1.60;;
9667;SDS011;4872;48.316;10.650;2023-11-21T08:58:40;2.33;;;1.50;;
9667;SDS011;4872;48.316;10.650;2023-11-21T09:01:07;4.00;;;1.60;;
9667;SDS011;4872;48.316;10.650;2023-11-21T09:03:34;4.23;;;2.03;;
9667;SDS011;4872;48.316;10.650;2023-11-21T09:06:01;2.53;;;1.60;;
9667;SDS011;4872;48.316;10.650;2023-11-21T09:08:28;5.00;;;1.90;;
9667;SDS011;4872;48.316;10.650;2023-11-21T09:10:57;2.47;;;1.77;;
9667;SDS011;4872;48.316;10.650;2023-11-21T09:13:23;8.40;;;4.83;;
9667;SDS011;4872;48.316;10.650;2023-11-21T09:15:50;4.40;;;2.30;;
9667;SDS011;4872;48.316;10.650;2023-11-21T09:18:17;14.47;;;8.87;;
9667;SDS011;4872;48.316;10.650;2023-11-21T09:20:44;6.23;;;3.57;;
9667;SDS011;4872;48.316;10.650;2023-11-21T09:23:11;22.27;;;10.73;;
9667;SDS011;4872;48.316;10.650;2023-11-21T09:25:38;4.27;;;3.33;;
9667;SDS011;4872;48.316;10.650;2023-11-21T09:28:06;25.03;;;16.73;;
9667;SDS011;4872;48.316;10.650;2023-11-21T09:30:33;15.40;;;10.13;;
9667;SDS011;4872;48.316;10.650;2023-11-21T09:33:01;10.80;;;7.40;;
9667;SDS011;4872;48.316;10.650;2023-11-21T09:35:27;4.23;;;2.10;;
9667;SDS011;4872;48.316;10.650;2023-11-21T09:37:54;5.67;;;2.80;;
9667;SDS011;4872;48.316;10.650;2023-11-21T09:40:22;4.00;;;2.00;;
9667;SDS011;4872;48.316;10.650;2023-11-21T09:42:49;2.97;;;1.73;;
9667;SDS011;4872;48.316;10.650;2023-11-21T09:45:24;2.33;;;2.10;;
9667;SDS011;4872;48.316;10.650;2023-11-21T09:47:52;5.30;;;2.37;;
9667;SDS011;4872;48.316;10.650;2023-11-21T09:50:21;3.70;;;2.30;;
9667;SDS011;4872;48.316;10.650;2023-11-21T09:52:54;3.77;;;1.70;;
9667;SDS011;4872;48.316;10.650;2023-11-21T09:55:26;2.53;;;1.80;;
9667;SDS011;4872;48.316;10.650;2023-11-21T09:57:55;3.13;;;1.93;;
9667;SDS011;4872;48.316;10.650;2023-11-21T10:00:24;2.20;;;1.57;;
9667;SDS011;4872;48.316;10.650;2023-11-21T10:02:52;5.13;;;2.57;;
9667;SDS011;4872;48.316;10.650;2023-11-21T10:05:20;3.03;;;1.80;;
9667;SDS011;4872;48.316;10.650;2023-11-21T10:07:47;2.03;;;1.73;;
9667;SDS011;4872;48.316;10.650;2023-11-21T10:10:16;2.83;;;2.10;;
9667;SDS011;4872;48.316;10.650;2023-11-21T10:12:45;2.10;;;1.90;;
9667;SDS011;4872;48.316;10.650;2023-11-21T10:15:16;2.27;;;1.77;;
9667;SDS011;4872;48.316;10.650;2023-11-21T10:17:45;3.57;;;1.40;;
9667;SDS011;4872;48.316;10.650;2023-11-21T10:20:14;3.60;;;1.83;;
9667;SDS011;4872;48.316;10.650;2023-11-21T10:22:42;2.23;;;1.90;;
9667;SDS011;4872;48.316;10.650;2023-11-21T10:25:09;5.17;;;2.03;;
9667;SDS011;4872;48.316;10.650;2023-11-21T10:27:39;4.73;;;2.07;;
9667;SDS011;4872;48.316;10.650;2023-11-21T10:30:08;3.93;;;1.70;;
9667;SDS011;4872;48.316;10.650;2023-11-21T10:32:37;4.23;;;2.27;;
9667;SDS011;4872;48.316;10.650;2023-11-21T10:35:07;3.27;;;1.90;;
9667;SDS011;4872;48.316;10.650;2023-11-21T10:37:35;2.57;;;1.90;;
9667;SDS011;4872;48.316;10.650;2023-11-21T10:40:04;2.63;;;1.60;;
9667;SDS011;4872;48.316;10.650;2023-11-21T10:42:32;2.23;;;1.37;;
9667;SDS011;4872;48.316;10.650;2023-11-21T10:44:59;2.23;;;1.20;;
9667;SDS011;4872;48.316;10.650;2023-11-21T10:47:28;1.97;;;1.30;;
9667;SDS011;4872;48.316;10.650;2023-11-21T10:49:57;1.87;;;1.20;;
9667;SDS011;4872;48.316;10.650;2023-11-21T10:52:28;1.97;;;1.37;;
9667;SDS011;4872;48.316;10.650;2023-11-21T10:54:54;2.30;;;1.53;;
9667;SDS011;4872;48.316;10.650;2023-11-21T10:57:24;1.75;;;1.13;;
9667;SDS011;4872;48.316;10.650;2023-11-21T10:59:51;2.40;;;1.10;;
9667;SDS011;4872;48.316;10.650;2023-11-21T11:02:21;1.30;;;1.00;;
9667;SDS011;4872;48.316;10.650;2023-11-21T11:04:53;1.57;;;1.17;;
9667;SDS011;4872;48.316;10.650;2023-11-21T11:07:21;3.47;;;1.37;;
9667;SDS011;4872;48.316;10.650;2023-11-21T11:09:53;2.77;;;1.30;;
9667;SDS011;4872;48.316;10.650;2023-11-21T11:12:21;0.97;;;0.97;;
9667;SDS011;4872;48.316;10.650;2023-11-21T11:14:48;1.60;;;1.50;;
9667;SDS011;4872;48.316;10.650;2023-11-21T11:17:15;2.93;;;1.70;;
9667;SDS011;4872;48.316;10.650;2023-11-21T11:19:44;2.70;;;1.83;;
9667;SDS011;4872;48.316;10.650;2023-11-21T11:22:14;1.60;;;1.37;;
9667;SDS011;4872;48.316;10.650;2023-11-21T11:25:03;1.87;;;1.40;;
9667;SDS011;4872;48.316;10.650;2023-11-21T11:27:54;1.50;;;1.30;;
9667;SDS011;4872;48.316;10.650;2023-11-21T11:30:36;1.63;;;1.53;;
9667;SDS011;4872;48.316;10.650;2023-11-21T11:33:12;3.63;;;1.80;;
9667;SDS011;4872;48.316;10.650;2023-11-21T11:35:50;2.23;;;1.70;;
9667;SDS011;4872;48.316;10.650;2023-11-21T11:38:27;2.57;;;1.63;;
9667;SDS011;4872;48.316;10.650;2023-11-21T11:41:01;1.93;;;1.60;;
9667;SDS011;4872;48.316;10.650;2023-11-21T11:43:29;1.97;;;1.47;;
9667;SDS011;4872;48.316;10.650;2023-11-21T11:45:58;3.23;;;2.30;;
9667;SDS011;4872;48.316;10.650;2023-11-21T11:48:28;3.93;;;2.80;;
9667;SDS011;4872;48.316;10.650;2023-11-21T11:51:02;3.70;;;2.50;;
9667;SDS011;4872;48.316;10.650;2023-11-21T11:53:34;3.07;;;2.20;;
9667;SDS011;4872;48.316;10.650;2023-11-21T11:58:53;2.63;;;1.83;;
9667;SDS011;4872;48.316;10.650;2023-11-21T12:01:21;2.10;;;1.90;;
9667;SDS011;4872;48.316;10.650;2023-11-21T12:06:56;1.90;;;1.80;;
9667;SDS011;4872;48.316;10.650;2023-11-21T12:09:27;2.13;;;1.73;;
9667;SDS011;4872;48.316;10.650;2023-11-21T12:11:57;7.40;;;2.60;;
9667;SDS011;4872;48.316;10.650;2023-11-21T12:14:25;6.27;;;2.87;;
9667;SDS011;4872;48.316;10.650;2023-11-21T12:16:52;3.57;;;3.17;;
9667;SDS011;4872;48.316;10.650;2023-11-21T12:19:20;2.30;;;1.93;;
9667;SDS011;4872;48.316;10.650;2023-11-21T12:21:48;3.57;;;2.40;;
9667;SDS011;4872;48.316;10.650;2023-11-21T12:24:15;2.20;;;1.83;;
9667;SDS011;4872;48.316;10.650;2023-11-21T12:26:42;3.70;;;1.83;;
9667;SDS011;4872;48.316;10.650;2023-11-21T12:29:11;2.10;;;1.90;;
9667;SDS011;4872;48.316;10.650;2023-11-21T12:31:38;2.07;;;1.87;;
9667;SDS011;4872;48.316;10.650;2023-11-21T12:34:05;4.13;;;1.60;;
9667;SDS011;4872;48.316;10.650;2023-11-21T12:36:35;4.53;;;3.17;;
9667;SDS011;4872;48.316;10.650;2023-11-21T12:39:02;4.27;;;3.30;;
9667;SDS011;4872;48.316;10.650;2023-11-21T12:41:30;2.57;;;2.37;;
9667;SDS011;4872;48.316;10.650;2023-11-21T12:43:57;2.77;;;2.57;;
9667;SDS011;4872;48.316;10.650;2023-11-21T12:46:26;2.60;;;2.40;;
9667;SDS011;4872;48.316;10.650;2023-11-21T12:48:55;3.77;;;2.40;;
9667;SDS011;4872;48.316;10.650;2023-11-21T12:51:23;3.97;;;2.67;;
9667;SDS011;4872;48.316;10.650;2023-11-21T12:53:50;2.20;;;2.00;;
9667;SDS011;4872;48.316;10.650;2023-11-21T12:56:17;4.33;;;1.90;;
9667;SDS011;4872;48.316;10.650;2023-11-21T12:58:49;2.10;;;1.90;;
9667;SDS011;4872;48.316;10.650;2023-11-21T13:01:16;2.40;;;2.07;;
9667;SDS011;4872;48.316;10.650;2023-11-21T13:03:47;2.30;;;2.10;;
9667;SDS011;4872;48.316;10.650;2023-11-21T13:06:16;4.23;;;2.50;;
9667;SDS011;4872;48.316;10.650;2023-11-21T13:08:45;2.90;;;2.10;;
9667;SDS011;4872;48.316;10.650;2023-11-21T13:11:12;3.97;;;2.20;;
9667;SDS011;4872;48.316;10.650;2023-11-21T13:13:40;2.53;;;1.60;;
9667;SDS011;4872;48.316;10.650;2023-11-21T13:16:10;2.70;;;2.00;;
9667;SDS011;4872;48.316;10.650;2023-11-21T13:18:40;3.00;;;2.30;;
9667;SDS011;4872;48.316;10.650;2023-11-21T13:21:11;4.30;;;2.70;;
9667;SDS011;4872;48.316;10.650;2023-11-21T13:23:44;2.80;;;2.27;;
9667;SDS011;4872;48.316;10.650;2023-11-21T13:26:13;2.37;;;1.80;;
9667;SDS011;4872;48.316;10.650;2023-11-21T13:28:40;2.53;;;2.10;;
9667;SDS011;4872;48.316;10.650;2023-11-21T13:31:11;4.27;;;2.10;;
9667;SDS011;4872;48.316;10.650;2023-11-21T13:33:46;2.03;;;1.60;;
9667;SDS011;4872;48.316;10.650;2023-11-21T13:36:22;4.20;;;2.07;;
9667;SDS011;4872;48.316;10.650;2023-11-21T13:38:50;3.40;;;2.70;;
9667;SDS011;4872;48.316;10.650;2023-11-21T13:41:18;4.70;;;2.93;;
9667;SDS011;4872;48.316;10.650;2023-11-21T13:43:47;3.03;;;1.90;;
9667;SDS011;4872;48.316;10.650;2023-11-21T13:46:23;2.80;;;2.50;;
9667;SDS011;4872;48.316;10.650;2023-11-21T13:48:50;2.20;;;1.67;;
9667;SDS011;4872;48.316;10.650;2023-11-21T13:51:20;1.93;;;1.77;;
9667;SDS011;4872;48.316;10.650;2023-11-21T13:53:56;1.97;;;1.83;;
9667;SDS011;4872;48.316;10.650;2023-11-21T13:56:24;2.33;;;2.00;;
9667;SDS011;4872;48.316;10.650;2023-11-21T13:58:53;1.90;;;1.80;;
9667;SDS011;4872;48.316;10.650;2023-11-21T14:01:21;2.00;;;1.90;;
9667;SDS011;4872;48.316;10.650;2023-11-21T14:04:10;1.70;;;1.60;;
9667;SDS011;4872;48.316;10.650;2023-11-21T14:06:46;1.97;;;1.60;;
9667;SDS011;4872;48.316;10.650;2023-11-21T14:09:14;2.70;;;1.90;;
9667;SDS011;4872;48.316;10.650;2023-11-21T14:11:48;2.23;;;1.77;;
9667;SDS011;4872;48.316;10.650;2023-11-21T14:14:16;1.60;;;1.50;;
9667;SDS011;4872;48.316;10.650;2023-11-21T14:16:43;1.20;;;1.20;;
9667;SDS011;4872;48.316;10.650;2023-11-21T14:19:10;3.53;;;1.30;;
9667;SDS011;4872;48.316;10.650;2023-11-21T14:21:40;2.00;;;1.20;;
9667;SDS011;4872;48.316;10.650;2023-11-21T14:24:10;3.67;;;1.53;;
9667;SDS011;4872;48.316;10.650;2023-11-21T14:26:39;2.20;;;1.80;;
9667;SDS011;4872;48.316;10.650;2023-11-21T14:29:07;2.43;;;2.20;;
9667;SDS011;4872;48.316;10.650;2023-11-21T14:31:37;2.40;;;2.17;;
9667;SDS011;4872;48.316;10.650;2023-11-21T14:34:04;1.93;;;1.70;;
9667;SDS011;4872;48.316;10.650;2023-11-21T14:36:31;2.43;;;1.83;;
9667;SDS011;4872;48.316;10.650;2023-11-21T14:38:58;2.00;;;1.90;;
9667;SDS011;4872;48.316;10.650;2023-11-21T14:41:27;1.77;;;1.67;;
9667;SDS011;4872;48.316;10.650;2023-11-21T14:43:54;1.40;;;1.30;;
9667;SDS011;4872;48.316;10.650;2023-11-21T14:46:22;1.60;;;1.50;;
9667;SDS011;4872;48.316;10.650;2023-11-21T14:48:49;1.73;;;1.53;;
9667;SDS011;4872;48.316;10.650;2023-11-21T14:51:23;1.70;;;1.60;;
9667;SDS011;4872;48.316;10.650;2023-11-21T14:53:58;2.50;;;1.90;;
9667;SDS011;4872;48.316;10.650;2023-11-21T14:56:32;3.50;;;2.03;;
9667;SDS011;4872;48.316;10.650;2023-11-21T14:58:59;4.97;;;2.30;;
9667;SDS011;4872;48.316;10.650;2023-11-21T15:01:33;1.47;;;1.30;;
9667;SDS011;4872;48.316;10.650;2023-11-21T15:04:09;1.30;;;1.20;;
9667;SDS011;4872;48.316;10.650;2023-11-21T15:06:47;1.20;;;1.10;;
9667;SDS011;4872;48.316;10.650;2023-11-21T15:09:13;1.17;;;1.10;;
9667;SDS011;4872;48.316;10.650;2023-11-21T15:12:01;1.60;;;1.50;;
9667;SDS011;4872;48.316;10.650;2023-11-21T15:14:38;1.80;;;1.70;;
9667;SDS011;4872;48.316;10.650;2023-11-21T15:17:05;2.30;;;1.77;;
9667;SDS011;4872;48.316;10.650;2023-11-21T15:19:32;2.40;;;2.20;;
9667;SDS011;4872;48.316;10.650;2023-11-21T15:22:00;4.27;;;3.90;;
9667;SDS011;4872;48.316;10.650;2023-11-21T15:24:27;4.83;;;4.37;;
9667;SDS011;4872;48.316;10.650;2023-11-21T15:26:54;3.17;;;2.97;;
9667;SDS011;4872;48.316;10.650;2023-11-21T15:29:22;2.87;;;2.67;;
9667;SDS011;4872;48.316;10.650;2023-11-21T15:31:50;170.67;;;72.13;;
9667;SDS011;4872;48.316;10.650;2023-11-21T15:34:21;62.10;;;36.93;;
9667;SDS011;4872;48.316;10.650;2023-11-21T15:36:48;37.70;;;22.10;;
9667;SDS011;4872;48.316;10.650;2023-11-21T15:39:18;14.63;;;9.80;;
9667;SDS011;4872;48.316;10.650;2023-11-21T15:41:46;3.80;;;3.40;;
9667;SDS011;4872;48.316;10.650;2023-11-21T15:44:13;2.03;;;1.83;;
9667;SDS011;4872;48.316;10.650;2023-11-21T15:46:41;2.10;;;2.00;;
9667;SDS011;4872;48.316;10.650;2023-11-21T15:49:08;2.27;;;2.07;;
9667;SDS011;4872;48.316;10.650;2023-11-21T15:51:39;3.97;;;2.80;;
9667;SDS011;4872;48.316;10.650;2023-11-21T15:54:06;12.93;;;7.93;;
9667;SDS011;4872;48.316;10.650;2023-11-21T15:56:33;23.27;;;15.27;;
9667;SDS011;4872;48.316;10.650;2023-11-21T15:59:01;17.17;;;11.27;;
9667;SDS011;4872;48.316;10.650;2023-11-21T16:01:30;14.73;;;8.93;;
9667;SDS011;4872;48.316;10.650;2023-11-21T16:03:58;10.50;;;7.90;;
9667;SDS011;4872;48.316;10.650;2023-11-21T16:06:26;9.43;;;6.80;;
9667;SDS011;4872;48.316;10.650;2023-11-21T16:08:54;6.83;;;4.70;;
9667;SDS011;4872;48.316;10.650;2023-11-21T16:11:23;4.03;;;3.57;;
9667;SDS011;4872;48.316;10.650;2023-11-21T16:13:50;6.63;;;5.67;;
9667;SDS011;4872;48.316;10.650;2023-11-21T16:16:20;9.00;;;5.90;;
9667;SDS011;4872;48.316;10.650;2023-11-21T16:18:48;7.73;;;5.77;;
9667;SDS011;4872;48.316;10.650;2023-11-21T16:21:16;6.07;;;4.03;;
9667;SDS011;4872;48.316;10.650;2023-11-21T16:23:47;4.33;;;3.10;;
9667;SDS011;4872;48.316;10.650;2023-11-21T16:26:16;4.00;;;3.20;;
9667;SDS011;4872;48.316;10.650;2023-11-21T16:28:45;3.80;;;3.47;;
9667;SDS011;4872;48.316;10.650;2023-11-21T16:31:12;7.63;;;5.17;;
9667;SDS011;4872;48.316;10.650;2023-11-21T16:33:41;16.47;;;11.03;;
9667;SDS011;4872;48.316;10.650;2023-11-21T16:36:08;13.57;;;7.80;;
9667;SDS011;4872;48.316;10.650;2023-11-21T16:38:37;3.97;;;3.20;;
9667;SDS011;4872;48.316;10.650;2023-11-21T16:41:04;17.93;;;13.67;;
9667;SDS011;4872;48.316;10.650;2023-11-21T16:43:36;16.17;;;11.93;;
9667;SDS011;4872;48.316;10.650;2023-11-21T16:46:14;11.57;;;8.13;;
9667;SDS011;4872;48.316;10.650;2023-11-21T16:48:41;22.03;;;16.13;;
9667;SDS011;4872;48.316;10.650;2023-11-21T16:51:08;26.23;;;19.57;;
9667;SDS011;4872;48.316;10.650;2023-11-21T16:53:38;31.37;;;21.60;;
9667;SDS011;4872;48.316;10.650;2023-11-21T16:56:08;15.13;;;12.33;;
9667;SDS011;4872;48.316;10.650;2023-11-21T16:58:37;7.20;;;5.17;;
9667;SDS011;4872;48.316;10.650;2023-11-21T17:01:04;7.87;;;6.50;;
9667;SDS011;4872;48.316;10.650;2023-11-21T17:03:33;5.33;;;4.83;;
9667;SDS011;4872;48.316;10.650;2023-11-21T17:06:01;4.23;;;3.83;;
9667;SDS011;4872;48.316;10.650;2023-11-21T17:08:30;5.20;;;4.70;;
9667;SDS011;4872;48.316;10.650;2023-11-21T17:11:04;3.10;;;2.90;;
9667;SDS011;4872;48.316;10.650;2023-11-21T17:13:36;3.37;;;2.53;;
9667;SDS011;4872;48.316;10.650;2023-11-21T17:16:03;2.60;;;2.40;;
9667;SDS011;4872;48.316;10.650;2023-11-21T17:18:32;2.27;;;2.10;;
9667;SDS011;4872;48.316;10.650;2023-11-21T17:21:00;1.97;;;1.80;;
9667;SDS011;4872;48.316;10.650;2023-11-21T17:23:36;5.97;;;4.70;;
9667;SDS011;4872;48.316;10.650;2023-11-21T17:26:04;2.73;;;2.53;;
9667;SDS011;4872;48.316;10.650;2023-11-21T17:28:31;2.83;;;2.63;;
9667;SDS011;4872;48.316;10.650;2023-11-21T17:30:58;2.97;;;2.70;;
9667;SDS011;4872;48.316;10.650;2023-11-21T17:33:25;2.87;;;2.57;;
9667;SDS011;4872;48.316;10.650;2023-11-21T17:35:53;2.97;;;2.50;;
9667;SDS011;4872;48.316;10.650;2023-11-21T17:38:20;3.50;;;2.83;;
9667;SDS011;4872;48.316;10.650;2023-11-21T17:40:50;2.87;;;2.57;;
9667;SDS011;4872;48.316;10.650;2023-11-21T17:43:24;3.43;;;3.07;;
9667;SDS011;4872;48.316;10.650;2023-11-21T17:45:51;5.00;;;4.57;;
9667;SDS011;4872;48.316;10.650;2023-11-21T17:48:21;5.83;;;5.23;;
9667;SDS011;4872;48.316;10.650;2023-11-21T17:50:51;8.27;;;7.47;;
9667;SDS011;4872;48.316;10.650;2023-11-21T17:53:20;7.73;;;7.03;;
9667;SDS011;4872;48.316;10.650;2023-11-21T17:55:48;9.20;;;8.23;;
9667;SDS011;4872;48.316;10.650;2023-11-21T17:58:17;6.87;;;6.17;;
9667;SDS011;4872;48.316;10.650;2023-11-21T18:00:47;6.37;;;5.67;;
9667;SDS011;4872;48.316;10.650;2023-11-21T18:03:17;7.00;;;6.40;;
9667;SDS011;4872;48.316;10.650;2023-11-21T18:05:51;5.37;;;4.87;;
9667;SDS011;4872;48.316;10.650;2023-11-21T18:08:19;6.30;;;5.70;;
9667;SDS011;4872;48.316;10.650;2023-11-21T18:10:48;6.73;;;6.07;;
9667;SDS011;4872;48.316;10.650;2023-11-21T18:13:15;7.27;;;6.23;;
9667;SDS011;4872;48.316;10.650;2023-11-21T18:15:42;8.43;;;7.53;;
9667;SDS011;4872;48.316;10.650;2023-11-21T18:18:11;6.47;;;5.87;;
9667;SDS011;4872;48.316;10.650;2023-11-21T18:20:38;6.67;;;6.07;;
9667;SDS011;4872;48.316;10.650;2023-11-21T18:23:05;7.67;;;6.60;;
9667;SDS011;4872;48.316;10.650;2023-11-21T18:25:41;7.17;;;5.90;;
9667;SDS011;4872;48.316;10.650;2023-11-21T18:28:08;7.80;;;5.67;;
9667;SDS011;4872;48.316;10.650;2023-11-21T18:30:35;7.20;;;6.50;;
9667;SDS011;4872;48.316;10.650;2023-11-21T18:33:02;7.00;;;6.40;;
9667;SDS011;4872;48.316;10.650;2023-11-21T18:35:30;7.63;;;6.93;;
9667;SDS011;4872;48.316;10.650;2023-11-21T18:37:57;8.10;;;6.57;;
9667;SDS011;4872;48.316;10.650;2023-11-21T18:40:24;8.03;;;6.90;;
9667;SDS011;4872;48.316;10.650;2023-11-21T18:42:51;9.53;;;7.97;;
9667;SDS011;4872;48.316;10.650;2023-11-21T18:45:18;18.70;;;14.47;;
9667;SDS011;4872;48.316;10.650;2023-11-21T18:47:45;12.43;;;10.03;;
9667;SDS011;4872;48.316;10.650;2023-11-21T18:50:13;8.10;;;7.33;;
9667;SDS011;4872;48.316;10.650;2023-11-21T18:52:43;8.20;;;7.40;;
9667;SDS011;4872;48.316;10.650;2023-11-21T18:55:10;8.57;;;7.60;;
9667;SDS011;4872;48.316;10.650;2023-11-21T18:57:37;8.17;;;7.30;;
9667;SDS011;4872;48.316;10.650;2023-11-21T19:00:05;9.70;;;8.90;;
9667;SDS011;4872;48.316;10.650;2023-11-21T19:02:34;8.60;;;7.80;;
9667;SDS011;4872;48.316;10.650;2023-11-21T19:05:01;12.20;;;10.33;;
9667;SDS011;4872;48.316;10.650;2023-11-21T19:07:29;9.70;;;8.70;;
9667;SDS011;4872;48.316;10.650;2023-11-21T19:10:02;10.93;;;9.83;;
9667;SDS011;4872;48.316;10.650;2023-11-21T19:12:29;12.63;;;10.97;;
9667;SDS011;4872;48.316;10.650;2023-11-21T19:14:56;12.80;;;10.70;;
9667;SDS011;4872;48.316;10.650;2023-11-21T19:17:23;10.80;;;9.70;;
9667;SDS011;4872;48.316;10.650;2023-11-21T19:19:51;10.10;;;9.07;;
9667;SDS011;4872;48.316;10.650;2023-11-21T19:22:18;10.27;;;9.13;;
9667;SDS011;4872;48.316;10.650;2023-11-21T19:24:45;9.73;;;8.73;;
9667;SDS011;4872;48.316;10.650;2023-11-21T19:27:13;9.00;;;8.07;;
9667;SDS011;4872;48.316;10.650;2023-11-21T19:29:40;8.77;;;7.57;;
9667;SDS011;4872;48.316;10.650;2023-11-21T19:32:07;9.30;;;8.37;;
9667;SDS011;4872;48.316;10.650;2023-11-21T19:34:33;8.30;;;7.40;;
9667;SDS011;4872;48.316;10.650;2023-11-21T19:37:01;9.27;;;8.37;;
9667;SDS011;4872;48.316;10.650;2023-11-21T19:39:28;9.83;;;8.50;;
9667;SDS011;4872;48.316;10.650;2023-11-21T19:41:55;10.47;;;9.37;;
9667;SDS011;4872;48.316;10.650;2023-11-21T19:44:23;10.40;;;9.00;;
9667;SDS011;4872;48.316;10.650;2023-11-21T19:46:50;10.83;;;9.30;;
9667;SDS011;4872;48.316;10.650;2023-11-21T19:49:17;12.03;;;10.77;;
9667;SDS011;4872;48.316;10.650;2023-11-21T19:51:45;13.93;;;11.17;;
9667;SDS011;4872;48.316;10.650;2023-11-21T19:54:12;14.13;;;11.50;;
9667;SDS011;4872;48.316;10.650;2023-11-21T19:56:39;13.30;;;11.80;;
9667;SDS011;4872;48.316;10.650;2023-11-21T19:59:07;16.67;;;14.50;;
9667;SDS011;4872;48.316;10.650;2023-11-21T20:01:36;17.20;;;14.30;;
9667;SDS011;4872;48.316;10.650;2023-11-21T20:04:03;15.63;;;13.97;;